Time;durP1;ratioP1;P1;durP2;ratioP2;P2;SDS_P1;SDS_P2;PMS_P1;PMS_P2;Temp;Humidity;BMP_temperature;BMP_pressure;BME280_temperature;BME280_humidity;BME280_pressure;Samples;Min_cycle;Max_cycle;Signal;HPM_P1;HPM_P2
2023/11/11 00:00:09;;;;;;;0.00;0.00;;;;;;;4.40;100.00;99343.41;4964464;28;20547;-79
2023/11/11 00:02:34;;;;;;;0.00;0.00;;;;;;;4.48;100.00;99348.34;4964569;28;20085;-77
2023/11/11 00:05:00;;;;;;;0.00;0.00;;;;;;;4.39;100.00;99341.75;4951313;28;20030;-77
2023/11/11 00:07:25;;;;;;;0.00;0.00;;;;;;;4.41;100.00;99367.50;4960473;28;20037;-77
2023/11/11 00:09:51;;;;;;;0.00;0.00;;;;;;;4.43;100.00;99384.31;4953111;28;20058;-78
2023/11/11 00:12:17;;;;;;;0.00;0.00;;;;;;;4.36;100.00;99384.47;4971762;28;20615;-77
2023/11/11 00:14:43;;;;;;;0.00;0.00;;;;;;;4.38;100.00;99378.84;4957065;28;20080;-77
2023/11/11 00:17:09;;;;;;;0.00;0.00;;;;;;;4.36;100.00;99381.75;4977233;28;20092;-79
2023/11/11 00:19:36;;;;;;;0.00;0.00;;;;;;;4.40;100.00;99386.72;4960075;28;20465;-78
2023/11/11 00:22:01;;;;;;;0.00;0.00;;;;;;;4.55;100.00;99389.59;4960144;28;20034;-79
2023/11/11 00:24:27;;;;;;;0.00;0.00;;;;;;;4.68;100.00;99378.38;4946868;28;20392;-78
2023/11/11 00:26:52;;;;;;;0.00;0.00;;;;;;;4.87;100.00;99383.47;4967711;28;20032;-78
2023/11/11 00:29:18;;;;;;;0.00;0.00;;;;;;;4.84;100.00;99381.28;4940093;28;20026;-77
2023/11/11 00:31:47;;;;;;;0.00;0.00;;;;;;;4.79;100.00;99384.75;4937267;28;20070;-78
2023/11/11 00:34:15;;;;;;;0.00;0.00;;;;;;;4.67;100.00;99384.06;4969663;28;20027;-80
2023/11/11 00:36:45;;;;;;;0.00;0.00;;;;;;;4.59;100.00;99384.50;4965913;28;20442;-79
2023/11/11 00:39:13;;;;;;;0.00;0.00;;;;;;;4.36;100.00;99349.28;4953965;28;20023;-79
2023/11/11 00:41:39;;;;;;;0.00;0.00;;;;;;;4.42;100.00;99357.47;4950034;28;20037;-79
2023/11/11 00:44:09;;;;;;;0.10;0.10;;;;;;;4.56;100.00;99364.16;4958337;28;20108;-79
2023/11/11 00:46:38;;;;;;;0.00;0.00;;;;;;;4.55;100.00;99346.28;4946487;28;20057;-78
2023/11/11 00:49:05;;;;;;;0.00;0.00;;;;;;;4.55;100.00;99344.38;4960701;28;20022;-79
2023/11/11 00:51:32;;;;;;;0.00;0.00;;;;;;;4.53;100.00;99349.22;4956037;28;20136;-80
2023/11/11 00:53:58;;;;;;;0.00;0.00;;;;;;;4.58;100.00;99361.19;4936662;28;20029;-79
2023/11/11 00:56:24;;;;;;;0.00;0.00;;;;;;;4.56;100.00;99361.47;4972176;28;20034;-79
2023/11/11 00:58:50;;;;;;;0.10;0.10;;;;;;;4.43;100.00;99353.72;4950082;28;20030;-79
2023/11/11 01:01:15;;;;;;;0.00;0.00;;;;;;;4.38;100.00;99359.88;4973566;28;20031;-78
2023/11/11 01:03:40;;;;;;;0.00;0.00;;;;;;;4.33;100.00;99374.16;4941359;28;20041;-78
2023/11/11 01:06:06;;;;;;;0.00;0.00;;;;;;;4.22;100.00;99363.44;4955157;28;20038;-79
2023/11/11 01:08:32;;;;;;;0.00;0.00;;;;;;;4.09;100.00;99353.78;4982250;28;20029;-78
2023/11/11 01:10:59;;;;;;;0.00;0.00;;;;;;;4.06;100.00;99375.94;4948248;28;20033;-78
2023/11/11 01:13:25;;;;;;;0.00;0.00;;;;;;;3.97;100.00;99368.25;4973691;28;20062;-78
2023/11/11 01:15:52;;;;;;;0.00;0.00;;;;;;;3.92;100.00;99370.06;4965289;28;20076;-78
2023/11/11 01:18:20;;;;;;;0.00;0.00;;;;;;;3.60;100.00;99333.63;4970765;28;20023;-77
2023/11/11 01:20:46;;;;;;;0.00;0.00;;;;;;;3.82;100.00;99376.94;4949595;28;20034;-77
2023/11/11 01:23:12;;;;;;;0.00;0.00;;;;;;;3.71;100.00;99375.16;4938640;28;20026;-78
2023/11/11 01:25:37;;;;;;;0.00;0.00;;;;;;;3.69;100.00;99379.19;4946793;28;20144;-78
2023/11/11 01:28:03;;;;;;;0.10;0.10;;;;;;;3.69;100.00;99376.47;4948730;28;20041;-78
2023/11/11 01:30:29;;;;;;;0.10;0.10;;;;;;;3.72;100.00;99373.28;4944988;28;20411;-77
2023/11/11 01:32:54;;;;;;;0.00;0.00;;;;;;;3.47;100.00;99339.38;4978367;28;20037;-78
2023/11/11 01:35:20;;;;;;;0.00;0.00;;;;;;;3.75;100.00;99389.00;4971228;28;20030;-77
2023/11/11 01:37:46;;;;;;;0.00;0.00;;;;;;;3.72;100.00;99375.97;4934739;28;20019;-76
2023/11/11 01:40:12;;;;;;;0.00;0.00;;;;;;;3.65;100.00;99376.97;4931444;28;20768;-77
2023/11/11 01:42:38;;;;;;;0.00;0.00;;;;;;;3.54;100.00;99364.34;4981613;28;20625;-77
2023/11/11 01:45:04;;;;;;;0.00;0.00;;;;;;;3.62;100.00;99374.75;4983323;28;20038;-76
2023/11/11 01:47:29;;;;;;;0.00;0.00;;;;;;;3.55;100.00;99366.00;4953596;28;20092;-77
2023/11/11 01:49:55;;;;;;;0.00;0.00;;;;;;;3.57;100.00;99376.56;4939864;28;20023;-75
2023/11/11 01:52:21;;;;;;;0.00;0.00;;;;;;;3.57;100.00;99377.38;4966457;28;20469;-77
2023/11/11 01:54:47;;;;;;;0.00;0.00;;;;;;;3.55;100.00;99376.81;4969284;28;20080;-77
2023/11/11 01:57:14;;;;;;;0.00;0.00;;;;;;;3.54;100.00;99377.06;4981829;28;20487;-77
2023/11/11 01:59:40;;;;;;;0.00;0.00;;;;;;;3.55;100.00;99384.06;4967356;28;20029;-78
2023/11/11 02:02:05;;;;;;;0.00;0.00;;;;;;;3.49;100.00;99388.59;4982251;28;20034;-79
2023/11/11 02:04:31;;;;;;;0.00;0.00;;;;;;;3.46;100.00;99389.06;4985925;28;20026;-78
2023/11/11 02:06:56;;;;;;;0.00;0.00;;;;;;;3.38;100.00;99387.59;4930872;28;20093;-79
2023/11/11 02:09:22;;;;;;;0.00;0.00;;;;;;;3.45;100.00;99382.03;4937474;28;20057;-78
2023/11/11 02:11:51;;;;;;;0.00;0.00;;;;;;;3.60;100.00;99386.88;4972684;28;20849;-78
2023/11/11 02:14:17;;;;;;;0.00;0.00;;;;;;;3.65;100.00;99397.75;4958618;28;20027;-78
2023/11/11 02:16:43;;;;;;;0.00;0.00;;;;;;;3.53;100.00;99362.69;4970227;28;20114;-76
2023/11/11 02:19:08;;;;;;;0.00;0.00;;;;;;;3.77;100.00;99384.19;4972770;28;20023;-79
2023/11/11 02:21:34;;;;;;;0.00;0.00;;;;;;;3.78;100.00;99397.47;4929393;28;20033;-77
2023/11/11 02:24:02;;;;;;;0.00;0.00;;;;;;;3.83;100.00;99396.72;4953126;28;20039;-78
2023/11/11 02:26:27;;;;;;;0.00;0.00;;;;;;;3.83;100.00;99404.81;4970998;28;20041;-78
2023/11/11 02:28:53;;;;;;;0.00;0.00;;;;;;;3.66;100.00;99384.03;4935095;28;20035;-78
2023/11/11 02:31:18;;;;;;;0.00;0.00;;;;;;;3.83;100.00;99399.41;4962061;28;20030;-78
2023/11/11 02:33:44;;;;;;;0.00;0.00;;;;;;;3.82;100.00;99403.19;4953822;28;20062;-77
2023/11/11 02:36:19;;;;;;;0.00;0.00;;;;;;;3.75;100.00;99397.13;4960977;28;20030;-77
2023/11/11 02:38:44;;;;;;;0.00;0.00;;;;;;;3.84;100.00;99412.69;4951798;28;20023;-78
2023/11/11 02:41:10;;;;;;;0.00;0.00;;;;;;;3.86;100.00;99398.13;4978891;28;20030;-77
2023/11/11 02:43:36;;;;;;;0.00;0.00;;;;;;;3.81;100.00;99393.41;4924084;28;20030;-79
2023/11/11 02:46:02;;;;;;;0.00;0.00;;;;;;;3.90;100.00;99405.47;4979710;28;20488;-78
2023/11/11 02:48:28;;;;;;;0.00;0.00;;;;;;;3.87;100.00;99402.44;4985608;28;20036;-77
2023/11/11 02:50:53;;;;;;;0.00;0.00;;;;;;;3.91;100.00;99406.28;4944879;28;20027;-78
2023/11/11 02:53:19;;;;;;;0.00;0.00;;;;;;;3.83;100.00;99411.03;4984703;28;20098;-77
2023/11/11 02:55:45;;;;;;;0.00;0.00;;;;;;;3.70;100.00;99399.75;4963682;28;20018;-78
2023/11/11 02:58:10;;;;;;;0.00;0.00;;;;;;;3.59;100.00;99394.19;4963338;28;20031;-79
2023/11/11 03:00:39;;;;;;;0.00;0.00;;;;;;;3.58;100.00;99408.75;4922381;28;21490;-78
2023/11/11 03:03:07;;;;;;;0.00;0.00;;;;;;;3.45;100.00;99404.47;4939403;28;20030;-78
2023/11/11 03:05:33;;;;;;;0.00;0.00;;;;;;;3.39;100.00;99401.91;4967028;28;20113;-78
2023/11/11 03:07:58;;;;;;;0.00;0.00;;;;;;;3.41;100.00;99407.91;4964363;28;20046;-78
2023/11/11 03:10:24;;;;;;;0.00;0.00;;;;;;;3.38;100.00;99400.31;4935926;28;20065;-78
2023/11/11 03:12:49;;;;;;;0.00;0.00;;;;;;;3.42;100.00;99393.34;4930894;28;20041;-78
2023/11/11 03:15:15;;;;;;;0.10;0.10;;;;;;;3.44;100.00;99397.44;4946618;28;20050;-77
2023/11/11 03:17:43;;;;;;;0.00;0.00;;;;;;;3.44;100.00;99412.84;4948804;28;20031;-78
2023/11/11 03:20:08;;;;;;;0.00;0.00;;;;;;;3.39;100.00;99416.28;4953685;28;20034;-77
2023/11/11 03:22:34;;;;;;;0.10;0.10;;;;;;;3.25;100.00;99394.13;4965123;28;20385;-77
2023/11/11 03:24:59;;;;;;;0.00;0.00;;;;;;;3.30;100.00;99402.34;4947970;28;20096;-79
2023/11/11 03:27:25;;;;;;;0.00;0.00;;;;;;;3.47;100.00;99406.94;4948603;28;20109;-78
2023/11/11 03:29:51;;;;;;;0.00;0.00;;;;;;;3.62;100.00;99422.59;4953487;28;20022;-76
2023/11/11 03:32:16;;;;;;;0.00;0.00;;;;;;;3.61;100.00;99413.66;4984634;28;20037;-78
2023/11/11 03:34:42;;;;;;;0.00;0.00;;;;;;;3.45;100.00;99395.56;4970832;28;20121;-79
2023/11/11 03:37:07;;;;;;;0.10;0.10;;;;;;;3.48;100.00;99398.56;4958540;28;20069;-77
2023/11/11 03:39:33;;;;;;;0.00;0.00;;;;;;;3.51;100.00;99412.69;4963280;28;20474;-77
2023/11/11 03:41:59;;;;;;;0.00;0.00;;;;;;;3.55;100.00;99411.13;4952524;28;20525;-78
2023/11/11 03:44:24;;;;;;;0.00;0.00;;;;;;;3.58;100.00;99421.47;4976687;28;20057;-77
2023/11/11 03:46:50;;;;;;;0.00;0.00;;;;;;;3.56;100.00;99421.69;4941773;28;20040;-77
2023/11/11 03:49:15;;;;;;;0.00;0.00;;;;;;;3.60;100.00;99416.63;4933028;28;20768;-76
2023/11/11 03:51:41;;;;;;;0.00;0.00;;;;;;;3.50;100.00;99406.44;4934512;29;20031;-76
2023/11/11 03:54:06;;;;;;;0.10;0.10;;;;;;;3.54;100.00;99413.00;4934403;28;20581;-77
2023/11/11 03:56:32;;;;;;;0.10;0.10;;;;;;;3.62;100.00;99420.72;4929310;29;20059;-77
2023/11/11 03:58:57;;;;;;;0.00;0.00;;;;;;;3.59;100.00;99414.97;4949502;28;20038;-77
2023/11/11 04:01:22;;;;;;;0.00;0.00;;;;;;;3.65;100.00;99409.41;4932992;28;20046;-78
2023/11/11 04:03:48;;;;;;;0.10;0.10;;;;;;;3.62;100.00;99412.63;4933928;28;20031;-78
2023/11/11 04:06:14;;;;;;;0.00;0.00;;;;;;;3.63;100.00;99416.94;4960675;28;20122;-78
2023/11/11 04:08:39;;;;;;;0.00;0.00;;;;;;;3.62;100.00;99415.31;4916956;29;20792;-78
2023/11/11 04:11:09;;;;;;;0.00;0.00;;;;;;;3.60;100.00;99417.44;4931038;28;20548;-76
2023/11/11 04:13:40;;;;;;;0.00;0.00;;;;;;;3.60;100.00;99428.25;4922401;28;20030;-78
2023/11/11 04:16:09;;;;;;;0.00;0.00;;;;;;;3.59;100.00;99432.03;4950987;28;20054;-78
2023/11/11 04:18:36;;;;;;;0.00;0.00;;;;;;;3.64;100.00;99434.00;4938572;28;20022;-78
2023/11/11 04:21:02;;;;;;;0.00;0.00;;;;;;;3.74;100.00;99449.56;4956561;28;20062;-78
2023/11/11 04:23:30;;;;;;;0.10;0.10;;;;;;;3.64;100.00;99434.81;4933681;28;20030;-77
2023/11/11 04:26:00;;;;;;;0.00;0.00;;;;;;;3.71;100.00;99440.06;4953944;28;20030;-78
2023/11/11 04:28:27;;;;;;;0.00;0.00;;;;;;;3.78;100.00;99446.13;4958387;28;20081;-76
2023/11/11 04:30:52;;;;;;;0.00;0.00;;;;;;;3.83;100.00;99451.63;4965102;28;20030;-77
2023/11/11 04:33:21;;;;;;;0.00;0.00;;;;;;;3.81;100.00;99439.41;4915610;28;20031;-78
2023/11/11 04:35:46;;;;;;;0.00;0.00;;;;;;;3.87;100.00;99449.25;4966619;28;20572;-77
2023/11/11 04:38:12;;;;;;;0.00;0.00;;;;;;;3.85;100.00;99440.56;4929334;29;20091;-79
2023/11/11 04:40:38;;;;;;;0.00;0.00;;;;;;;3.86;100.00;99435.97;4922269;28;20035;-79
2023/11/11 04:43:03;;;;;;;0.00;0.00;;;;;;;3.86;100.00;99438.69;4945354;28;20114;-80
2023/11/11 04:45:30;;;;;;;0.00;0.00;;;;;;;3.90;100.00;99453.34;4958651;28;20042;-79
2023/11/11 04:47:56;;;;;;;0.00;0.00;;;;;;;3.99;100.00;99460.00;4969196;28;20049;-79
2023/11/11 04:50:21;;;;;;;0.00;0.00;;;;;;;4.01;100.00;99465.97;4974606;28;20026;-79
2023/11/11 04:52:47;;;;;;;0.00;0.00;;;;;;;4.00;100.00;99469.72;4944998;28;20125;-79
2023/11/11 04:55:13;;;;;;;0.00;0.00;;;;;;;4.00;100.00;99459.75;4999262;28;20379;-79
2023/11/11 04:57:38;;;;;;;0.00;0.00;;;;;;;4.00;100.00;99459.75;4969651;28;20029;-78
2023/11/11 05:00:09;;;;;;;0.00;0.00;;;;;;;4.05;100.00;99463.59;4985437;28;20444;-78
2023/11/11 05:02:39;;;;;;;0.00;0.00;;;;;;;4.06;100.00;99462.50;4952543;28;20031;-78
2023/11/11 05:05:05;;;;;;;0.00;0.00;;;;;;;4.05;100.00;99458.19;4940390;28;20038;-79
2023/11/11 05:07:31;;;;;;;0.00;0.00;;;;;;;4.02;100.00;99457.59;4946358;28;20445;-79
2023/11/11 05:09:57;;;;;;;0.00;0.00;;;;;;;4.02;100.00;99468.41;4966369;28;20088;-77
2023/11/11 05:12:23;;;;;;;0.00;0.00;;;;;;;4.06;100.00;99467.94;4955759;28;20031;-79
2023/11/11 05:14:49;;;;;;;0.00;0.00;;;;;;;3.99;100.00;99484.34;4965616;28;20464;-80
2023/11/11 05:17:16;;;;;;;0.00;0.00;;;;;;;3.83;100.00;99477.84;4956844;28;20027;-77
2023/11/11 05:19:44;;;;;;;0.00;0.00;;;;;;;3.67;100.00;99465.94;4956335;28;20038;-79
2023/11/11 05:22:09;;;;;;;0.00;0.00;;;;;;;3.74;100.00;99484.72;4968277;28;20034;-78
2023/11/11 05:24:37;;;;;;;0.00;0.00;;;;;;;3.67;100.00;99496.50;4955342;28;20022;-78
2023/11/11 05:27:03;;;;;;;0.00;0.00;;;;;;;3.54;100.00;99483.28;4981121;28;20031;-79
2023/11/11 05:29:28;;;;;;;0.00;0.00;;;;;;;3.56;100.00;99480.34;4974115;28;20038;-78
2023/11/11 05:31:54;;;;;;;0.00;0.00;;;;;;;3.64;100.00;99494.28;4957617;28;20646;-78
2023/11/11 05:34:19;;;;;;;0.00;0.00;;;;;;;3.59;100.00;99479.84;4970108;28;20042;-78
2023/11/11 05:36:44;;;;;;;0.00;0.00;;;;;;;3.60;100.00;99479.59;4978624;28;20789;-82
2023/11/11 05:39:14;;;;;;;0.00;0.00;;;;;;;3.67;100.00;99490.28;4957898;28;20045;-78
2023/11/11 05:41:39;;;;;;;0.00;0.00;;;;;;;3.53;100.00;99459.22;4986667;28;20465;-78
2023/11/11 05:44:06;;;;;;;0.10;0.10;;;;;;;3.64;100.00;99488.88;4951117;28;20050;-79
2023/11/11 05:46:31;;;;;;;0.00;0.00;;;;;;;3.61;100.00;99489.38;4973624;28;20054;-77
2023/11/11 05:48:57;;;;;;;0.00;0.00;;;;;;;3.53;100.00;99484.34;4941162;28;20022;-79
2023/11/11 05:51:24;;;;;;;0.00;0.00;;;;;;;3.49;100.00;99488.63;4921328;28;20474;-78
2023/11/11 05:53:52;;;;;;;0.00;0.00;;;;;;;3.53;100.00;99491.66;4931180;28;20058;-78
2023/11/11 05:56:19;;;;;;;0.00;0.00;;;;;;;3.50;100.00;99482.13;4911848;28;20121;-78
2023/11/11 05:58:45;;;;;;;0.00;0.00;;;;;;;3.40;100.00;99476.53;4932940;28;20023;-79
2023/11/11 06:01:16;;;;;;;0.00;0.00;;;;;;;3.41;100.00;99500.63;4954228;28;20060;-80
2023/11/11 06:03:42;;;;;;;0.00;0.00;;;;;;;3.15;100.00;99469.59;4945084;28;20070;-78
2023/11/11 06:06:15;;;;;;;0.00;0.00;;;;;;;3.17;100.00;99478.28;4938105;28;20090;-78
2023/11/11 06:08:45;;;;;;;0.00;0.00;;;;;;;3.09;100.00;99470.56;4943099;28;20019;-78
2023/11/11 06:11:11;;;;;;;0.00;0.00;;;;;;;3.16;100.00;99482.03;4936575;28;20031;-78
2023/11/11 06:13:39;;;;;;;0.00;0.00;;;;;;;3.02;100.00;99481.47;4948048;28;20029;-77
2023/11/11 06:16:05;;;;;;;0.00;0.00;;;;;;;2.90;100.00;99484.22;4932065;28;20027;-79
2023/11/11 06:18:36;;;;;;;0.00;0.00;;;;;;;2.73;100.00;99477.91;4947427;28;20030;-79
2023/11/11 06:21:01;;;;;;;0.00;0.00;;;;;;;2.71;100.00;99496.25;4930781;28;20046;-78
2023/11/11 06:23:26;;;;;;;0.00;0.00;;;;;;;2.69;100.00;99509.16;4937014;28;20026;-79
2023/11/11 06:25:52;;;;;;;0.10;0.10;;;;;;;2.50;100.00;99495.78;4939369;28;20035;-79
2023/11/11 06:28:18;;;;;;;0.00;0.00;;;;;;;2.25;100.00;99472.56;4924095;28;20038;-76
2023/11/11 06:30:43;;;;;;;0.00;0.00;;;;;;;2.22;100.00;99489.22;4966344;28;20031;-76
2023/11/11 06:33:08;;;;;;;0.00;0.00;;;;;;;2.25;100.00;99510.34;4929205;29;20031;-77
2023/11/11 06:35:37;;;;;;;0.00;0.00;;;;;;;2.27;100.00;99524.41;4929085;28;20129;-78
2023/11/11 06:38:02;;;;;;;0.00;0.00;;;;;;;2.41;100.00;99540.34;4934469;28;20084;-79
2023/11/11 06:40:30;;;;;;;0.00;0.00;;;;;;;2.48;100.00;99543.78;4945454;28;20035;-79
2023/11/11 06:42:56;;;;;;;0.00;0.00;;;;;;;2.54;100.00;99553.66;4908044;29;20035;-78
2023/11/11 06:45:22;;;;;;;0.00;0.00;;;;;;;2.55;100.00;99549.06;4919828;28;20564;-78
2023/11/11 06:47:48;;;;;;;0.00;0.00;;;;;;;2.50;100.00;99548.94;4956372;28;20035;-79
2023/11/11 06:50:17;;;;;;;0.00;0.00;;;;;;;2.51;100.00;99556.81;4946639;28;20377;-79
2023/11/11 06:52:43;;;;;;;0.00;0.00;;;;;;;2.54;100.00;99560.91;4955290;28;20399;-78
2023/11/11 06:55:10;;;;;;;0.00;0.00;;;;;;;2.65;100.00;99572.78;4969984;28;20033;-78
2023/11/11 06:57:39;;;;;;;0.00;0.00;;;;;;;2.54;100.00;99550.94;4932394;28;20066;-78
2023/11/11 07:00:07;;;;;;;0.00;0.00;;;;;;;2.59;100.00;99569.94;4971715;28;20037;-77
2023/11/11 07:02:32;;;;;;;0.00;0.00;;;;;;;2.57;100.00;99573.94;4976336;28;20076;-76
2023/11/11 07:05:04;;;;;;;0.00;0.00;;;;;;;2.52;100.00;99561.13;4968609;28;20627;-77
2023/11/11 07:07:31;;;;;;;0.00;0.00;;;;;;;2.69;100.00;99579.34;4963434;28;20378;-77
2023/11/11 07:09:56;;;;;;;0.00;0.00;;;;;;;2.78;100.00;99591.44;4948246;28;20096;-78
2023/11/11 07:12:22;;;;;;;0.00;0.00;;;;;;;2.86;100.00;99593.78;4981234;28;20528;-78
2023/11/11 07:14:48;;;;;;;0.00;0.00;;;;;;;2.92;100.00;99598.25;4959799;28;20030;-77
2023/11/11 07:17:14;;;;;;;0.00;0.00;;;;;;;2.95;100.00;99602.38;4928435;28;20096;-78
2023/11/11 07:19:45;;;;;;;0.00;0.00;;;;;;;2.73;100.00;99575.94;4954771;28;20110;-79
2023/11/11 07:22:12;;;;;;;0.10;0.10;;;;;;;2.79;100.00;99585.00;4956726;28;20034;-76
2023/11/11 07:24:37;;;;;;;0.00;0.00;;;;;;;2.76;100.00;99590.84;4940581;28;20050;-77
2023/11/11 07:27:04;;;;;;;0.00;0.00;;;;;;;2.77;100.00;99597.88;4946377;28;20063;-77
2023/11/11 07:29:30;;;;;;;0.00;0.00;;;;;;;2.74;100.00;99587.56;4944856;28;20629;-77
2023/11/11 07:31:55;;;;;;;0.10;0.10;;;;;;;2.78;100.00;99583.34;4970665;28;20109;-77
2023/11/11 07:34:24;;;;;;;0.00;0.00;;;;;;;2.86;100.00;99593.78;4956545;28;20146;-77
2023/11/11 07:36:49;;;;;;;0.00;0.00;;;;;;;2.94;100.00;99596.13;4953804;28;20027;-77
2023/11/11 07:39:15;;;;;;;0.00;0.00;;;;;;;2.96;100.00;99596.72;4967710;28;20029;-77
2023/11/11 07:41:41;;;;;;;0.00;0.00;;;;;;;3.05;100.00;99601.75;4946128;28;20027;-77
2023/11/11 07:44:09;;;;;;;0.00;0.00;;;;;;;3.09;100.00;99603.72;4947588;28;20490;-77
2023/11/11 07:46:35;;;;;;;0.10;0.10;;;;;;;2.95;100.00;99589.66;4923763;29;20062;-76
2023/11/11 07:49:01;;;;;;;0.00;0.00;;;;;;;3.06;100.00;99609.63;4960189;28;20032;-78
2023/11/11 07:51:26;;;;;;;0.00;0.00;;;;;;;3.02;100.00;99604.91;4955339;28;20040;-78
2023/11/11 07:53:52;;;;;;;0.00;0.00;;;;;;;2.86;100.00;99587.56;4953302;28;20035;-76
2023/11/11 07:56:18;;;;;;;0.10;0.10;;;;;;;2.73;100.00;99570.56;4918671;29;20360;-77
2023/11/11 07:58:47;;;;;;;0.00;0.00;;;;;;;3.02;100.00;99610.31;4953862;28;20031;-77
2023/11/11 08:01:12;;;;;;;0.00;0.00;;;;;;;2.87;100.00;99576.50;4955678;28;20034;-78
2023/11/11 08:03:38;;;;;;;0.00;0.00;;;;;;;2.97;100.00;99586.72;4937450;28;20426;-80
2023/11/11 08:09:10;;;;;;;0.00;0.00;;;;;;;3.23;100.00;99623.22;4942363;28;20046;-78
2023/11/11 08:11:38;;;;;;;0.00;0.00;;;;;;;3.07;100.00;99583.44;4965351;28;20031;-79
2023/11/11 08:14:05;;;;;;;0.00;0.00;;;;;;;3.30;100.00;99590.66;4950583;28;20054;-78
2023/11/11 08:16:53;;;;;;;0.00;0.00;;;;;;;3.75;100.00;99624.28;4960749;28;20090;-80
2023/11/11 08:19:19;;;;;;;0.00;0.00;;;;;;;3.61;100.00;99575.88;4947538;28;20477;-80
2023/11/11 08:22:26;;;;;;;0.00;0.00;;;;;;;4.16;100.00;99625.03;4936217;28;20113;-76
2023/11/11 08:24:50;;;;;;;0.00;0.00;;;;;;;4.17;100.00;99572.56;4943328;28;20046;-77
2023/11/11 08:27:16;;;;;;;0.00;0.00;;;;;;;4.93;100.00;99604.63;4950781;28;20035;-76
2023/11/11 08:29:41;;;;;;;0.10;0.10;;;;;;;5.14;100.00;99618.47;4953815;28;20142;-77
2023/11/11 08:32:07;;;;;;;0.10;0.10;;;;;;;5.09;100.00;99604.84;4944731;28;20071;-76
2023/11/11 08:34:33;;;;;;;0.00;0.00;;;;;;;5.51;100.00;99626.00;4953649;28;20059;-77
2023/11/11 08:36:58;;;;;;;0.00;0.00;;;;;;;5.64;100.00;99644.63;4941833;28;20109;-77
2023/11/11 08:39:26;;;;;;;0.00;0.00;;;;;;;5.44;100.00;99626.19;4957298;28;20110;-77
2023/11/11 08:41:52;;;;;;;0.00;0.00;;;;;;;5.66;100.00;99637.03;4963485;28;20046;-77
2023/11/11 08:44:19;;;;;;;0.00;0.00;;;;;;;6.07;100.00;99634.81;4957848;28;20031;-76
2023/11/11 08:46:45;;;;;;;0.00;0.00;;;;;;;7.21;100.00;99649.34;4929576;28;20437;-76
2023/11/11 08:49:10;;;;;;;0.00;0.00;;;;;;;7.93;100.00;99644.22;4934894;28;20038;-76
2023/11/11 08:51:37;;;;;;;0.00;0.00;;;;;;;8.55;100.00;99632.38;4948659;28;20114;-77
2023/11/11 08:54:03;;;;;;;0.00;0.00;;;;;;;9.66;100.00;99640.94;4952475;28;20126;-77
2023/11/11 08:56:31;;;;;;;0.00;0.00;;;;;;;11.07;97.62;99635.06;4919024;28;20133;-75
2023/11/11 08:58:56;;;;;;;0.00;0.00;;;;;;;11.76;88.92;99632.94;4944479;28;20117;-78
2023/11/11 09:01:22;;;;;;;0.00;0.00;;;;;;;12.29;85.95;99626.50;4925798;28;20127;-77
2023/11/11 09:03:49;;;;;;;0.00;0.00;;;;;;;13.36;80.53;99620.34;4938079;28;20379;-76
2023/11/11 09:06:16;;;;;;;0.10;0.10;;;;;;;14.35;76.99;99627.31;4935096;28;20085;-76
2023/11/11 09:08:42;;;;;;;0.00;0.00;;;;;;;16.51;69.07;99638.78;4931484;29;20384;-76
2023/11/11 09:11:08;;;;;;;0.00;0.00;;;;;;;18.46;61.26;99630.25;4936281;28;20058;-77
2023/11/11 09:13:34;;;;;;;0.00;0.00;;;;;;;20.15;54.91;99637.94;4957179;28;20458;-76
2023/11/11 09:15:59;;;;;;;0.00;0.00;;;;;;;21.22;51.92;99636.63;4960564;28;20046;-78
2023/11/11 09:18:25;;;;;;;0.00;0.00;;;;;;;22.77;48.30;99641.00;4957808;28;20035;-77
2023/11/11 09:20:50;;;;;;;0.00;0.00;;;;;;;23.92;45.92;99635.84;4947791;28;20035;-77
2023/11/11 09:23:16;;;;;;;0.00;0.00;;;;;;;24.01;45.75;99651.16;4957001;28;20027;-76
2023/11/11 09:25:41;;;;;;;0.00;0.00;;;;;;;22.91;47.29;99642.44;4913283;29;20026;-77
2023/11/11 09:28:07;;;;;;;0.00;0.00;;;;;;;21.71;50.24;99647.41;4930107;28;20482;-77
2023/11/11 09:30:33;;;;;;;0.00;0.00;;;;;;;20.25;53.18;99640.22;4974758;28;20114;-75
2023/11/11 09:32:59;;;;;;;0.00;0.00;;;;;;;19.40;55.48;99653.75;4978155;28;20134;-77
2023/11/11 09:35:25;;;;;;;0.00;0.00;;;;;;;17.99;57.37;99644.22;4965350;28;20441;-76
2023/11/11 09:37:50;;;;;;;0.00;0.00;;;;;;;16.92;59.81;99653.22;4966745;28;20041;-76
2023/11/11 09:40:16;;;;;;;0.00;0.00;;;;;;;16.08;63.78;99647.88;4938971;28;20111;-78
2023/11/11 09:42:42;;;;;;;0.00;0.00;;;;;;;15.48;65.26;99647.34;4960825;28;20027;-78
2023/11/11 09:45:10;;;;;;;0.00;0.00;;;;;;;15.19;65.85;99639.59;4939090;28;20074;-79
2023/11/11 09:47:41;;;;;;;0.00;0.00;;;;;;;15.50;66.90;99655.28;4945203;28;20031;-78
2023/11/11 09:50:07;;;;;;;0.00;0.00;;;;;;;15.80;67.08;99656.41;4960325;28;20034;-77
2023/11/11 09:52:34;;;;;;;0.00;0.00;;;;;;;16.72;64.01;99654.72;4969748;28;20027;-78
2023/11/11 09:55:02;;;;;;;0.00;0.00;;;;;;;18.72;57.50;99666.00;4970643;28;20081;-77
2023/11/11 09:57:31;;;;;;;0.00;0.00;;;;;;;21.23;49.57;99661.28;4962345;28;20045;-78
2023/11/11 09:59:57;;;;;;;0.00;0.00;;;;;;;22.78;44.78;99676.06;4988739;28;20022;-77
2023/11/11 10:02:23;;;;;;;0.00;0.00;;;;;;;24.32;41.39;99679.13;4956015;28;20055;-76
2023/11/11 10:04:50;;;;;;;0.00;0.00;;;;;;;26.21;38.68;99677.91;4971805;28;20027;-76
2023/11/11 10:07:16;;;;;;;0.00;0.00;;;;;;;27.73;34.89;99687.69;4973496;28;20035;-78
2023/11/11 10:09:42;;;;;;;0.00;0.00;;;;;;;28.49;33.52;99691.19;4972373;28;20030;-77
2023/11/11 10:12:08;;;;;;;0.00;0.00;;;;;;;29.08;32.74;99691.38;4953755;28;20165;-76
2023/11/11 10:14:35;;;;;;;0.00;0.00;;;;;;;29.19;30.52;99710.22;4977415;28;20054;-77
2023/11/11 10:17:03;;;;;;;0.00;0.00;;;;;;;28.01;29.54;99701.75;4981405;28;20034;-77
2023/11/11 10:19:31;;;;;;;0.00;0.00;;;;;;;28.25;30.32;99702.09;4961597;28;20027;-77
2023/11/11 10:21:57;;;;;;;0.00;0.00;;;;;;;28.94;30.66;99702.72;4957465;28;20030;-76
2023/11/11 10:24:22;;;;;;;0.00;0.00;;;;;;;29.80;29.31;99694.94;4981599;28;20120;-77
2023/11/11 10:26:48;;;;;;;0.00;0.00;;;;;;;31.32;28.24;99683.59;4963323;28;20113;-77
2023/11/11 10:29:14;;;;;;;0.00;0.00;;;;;;;32.99;26.65;99699.22;4972987;28;20023;-78
2023/11/11 10:31:40;;;;;;;0.00;0.00;;;;;;;33.78;25.07;99703.09;4964371;28;20026;-78
2023/11/11 10:34:06;;;;;;;0.00;0.00;;;;;;;34.20;24.35;99697.53;4973939;28;20031;-77
2023/11/11 10:36:43;;;;;;;0.00;0.00;;;;;;;34.20;22.87;99693.91;4978297;28;20023;-78
2023/11/11 10:39:12;;;;;;;0.00;0.00;;;;;;;33.96;22.94;99690.50;4969358;28;20492;-77
2023/11/11 10:41:39;;;;;;;0.00;0.00;;;;;;;34.17;21.78;99695.59;4977258;28;20060;-77
2023/11/11 10:44:07;;;;;;;0.00;0.00;;;;;;;34.57;21.95;99691.69;4981375;28;21845;-76
2023/11/11 10:46:35;;;;;;;0.00;0.00;;;;;;;35.35;20.89;99701.97;4970361;28;20505;-77
2023/11/11 10:49:03;;;;;;;0.00;0.00;;;;;;;35.04;20.52;99691.13;4979271;28;20033;-77
2023/11/11 10:51:29;;;;;;;0.00;0.00;;;;;;;35.13;19.68;99696.16;4994645;28;20034;-78
2023/11/11 10:53:59;;;;;;;0.00;0.00;;;;;;;34.71;20.02;99694.13;4949316;28;20031;-78
2023/11/11 10:56:27;;;;;;;0.00;0.00;;;;;;;35.00;19.58;99681.13;4984730;28;20026;-79
2023/11/11 10:58:54;;;;;;;0.00;0.00;;;;;;;34.31;19.94;99690.81;4981784;28;20068;-78
2023/11/11 11:01:21;;;;;;;0.00;0.00;;;;;;;34.69;20.40;99688.09;5002082;28;20025;-77
2023/11/11 11:03:48;;;;;;;0.00;0.00;;;;;;;35.56;19.21;99683.44;4976488;28;20109;-76
2023/11/11 11:06:36;;;;;;;0.00;0.00;;;;;;;35.60;18.87;99684.13;4962627;28;20483;-78
2023/11/11 11:09:38;;;;;;;0.00;0.00;;;;;;;36.29;17.90;99685.47;4976774;28;20432;-77
2023/11/11 11:12:10;;;;;;;0.00;0.00;;;;;;;36.62;17.62;99682.22;4974864;28;20377;-78
2023/11/11 11:14:39;;;;;;;0.00;0.00;;;;;;;36.64;17.40;99671.16;4981474;28;20018;-78
2023/11/11 11:17:08;;;;;;;0.00;0.00;;;;;;;37.47;17.96;99670.81;4980083;28;20029;-77
2023/11/11 11:19:50;;;;;;;0.00;0.00;;;;;;;39.04;16.44;99664.31;4959163;28;20021;-78
2023/11/11 11:22:15;;;;;;;0.00;0.00;;;;;;;38.38;17.02;99645.75;4959258;28;20030;-77
2023/11/11 11:24:40;;;;;;;0.00;0.00;;;;;;;39.53;16.46;99650.94;4948632;28;20037;-77
2023/11/11 11:27:06;;;;;;;0.00;0.00;;;;;;;40.48;16.78;99645.66;4971139;28;20026;-76
2023/11/11 11:29:31;;;;;;;0.00;0.00;;;;;;;41.43;15.90;99639.13;4942602;28;20381;-77
2023/11/11 11:32:10;;;;;;;0.00;0.00;;;;;;;41.86;15.83;99636.56;4971851;28;20030;-77
2023/11/11 11:34:42;;;;;;;0.00;0.00;;;;;;;41.39;15.20;99632.81;4981730;28;20125;-77